Time;durP1;ratioP1;P1;durP2;ratioP2;P2;SDS_P1;SDS_P2;PMS_P1;PMS_P2;Temp;Humidity;BMP_temperature;BMP_pressure;BME280_temperature;BME280_humidity;BME280_pressure;Samples;Min_cycle;Max_cycle;Signal;HPM_P1;HPM_P2
2022/01/17 00:01:25;;;;;;;;;98.50;84.25;;;;;;;;5091392;28;8887;-77
2022/01/17 00:03:50;;;;;;;;;92.50;71.75;;;;;;;;5091734;28;8902;-76
2022/01/17 00:06:15;;;;;;;;;102.00;91.33;;;;;;;;5092173;28;8833;-76
2022/01/17 00:08:42;;;;;;;;;100.00;88.25;;;;;;;;5084572;28;8960;-76
2022/01/17 00:11:11;;;;;;;;;103.50;95.00;;;;;;;;5091920;28;8863;-76
2022/01/17 00:13:39;;;;;;;;;93.00;81.00;;;;;;;;5095985;28;8810;-76
2022/01/17 00:16:09;;;;;;;;;100.00;89.50;;;;;;;;5094978;28;8746;-76
2022/01/17 00:21:01;;;;;;;;;101.00;87.75;;;;;;;;5095344;28;8857;-76
2022/01/17 00:23:26;;;;;;;;;102.75;98.50;;;;;;;;5086916;28;8860;-76
2022/01/17 00:25:51;;;;;;;;;102.50;95.75;;;;;;;;5088819;28;8814;-75
2022/01/17 00:28:17;;;;;;;;;100.50;86.00;;;;;;;;5094481;28;8814;-75
2022/01/17 00:30:42;;;;;;;;;101.00;90.50;;;;;;;;5095762;28;8830;-76
2022/01/17 00:33:08;;;;;;;;;106.25;95.00;;;;;;;;5093899;28;8820;-75
2022/01/17 00:35:33;;;;;;;;;100.00;93.00;;;;;;;;5095354;28;8817;-75
2022/01/17 00:37:58;;;;;;;;;101.50;94.25;;;;;;;;5095427;28;8849;-76
2022/01/17 00:40:25;;;;;;;;;94.50;80.25;;;;;;;;5095212;28;8805;-75
2022/01/17 00:42:50;;;;;;;;;89.80;72.40;;;;;;;;5089219;28;8933;-76
2022/01/17 00:45:15;;;;;;;;;102.50;95.00;;;;;;;;5094574;28;8822;-76
2022/01/17 00:47:41;;;;;;;;;96.75;87.25;;;;;;;;5095649;28;8829;-76
2022/01/17 00:50:07;;;;;;;;;101.00;88.25;;;;;;;;5095372;28;9506;-76
2022/01/17 00:52:32;;;;;;;;;95.75;78.50;;;;;;;;5093992;28;8813;-75
2022/01/17 00:54:57;;;;;;;;;108.25;101.75;;;;;;;;5094632;28;8832;-76
2022/01/17 00:57:23;;;;;;;;;103.25;95.00;;;;;;;;5095347;28;8987;-75
2022/01/17 00:59:48;;;;;;;;;105.25;99.25;;;;;;;;5094742;28;8824;-76
2022/01/17 01:02:14;;;;;;;;;105.75;100.25;;;;;;;;5095469;28;8837;-76
2022/01/17 01:04:39;;;;;;;;;104.00;94.00;;;;;;;;5094779;28;8838;-76
2022/01/17 01:07:04;;;;;;;;;104.25;97.75;;;;;;;;5095063;28;8890;-76
2022/01/17 01:09:35;;;;;;;;;103.25;98.00;;;;;;;;5094820;28;8841;-75
2022/01/17 01:12:01;;;;;;;;;97.80;83.80;;;;;;;;5085539;28;8870;-76
2022/01/17 01:14:26;;;;;;;;;101.50;93.75;;;;;;;;5091687;28;8822;-76
2022/01/17 01:16:54;;;;;;;;;104.00;99.75;;;;;;;;5094835;28;8845;-76
2022/01/17 01:19:38;;;;;;;;;105.00;90.80;;;;;;;;5093553;28;8824;-76
2022/01/17 01:27:54;;;;;;;;;120.00;111.80;;;;;;;;5094600;28;11568;-75
2022/01/17 01:30:21;;;;;;;;;103.00;91.60;;;;;;;;5094729;28;8746;-76
2022/01/17 01:32:54;;;;;;;;;106.00;101.25;;;;;;;;5093081;28;8810;-76
2022/01/17 01:35:22;;;;;;;;;91.75;78.25;;;;;;;;5094688;28;9752;-76
2022/01/17 01:37:48;;;;;;;;;100.00;85.00;;;;;;;;5094610;28;8818;-75
2022/01/17 01:40:16;;;;;;;;;104.00;92.75;;;;;;;;5094415;28;8793;-75
2022/01/17 01:42:41;;;;;;;;;106.00;98.75;;;;;;;;5094415;28;8778;-75
2022/01/17 01:45:07;;;;;;;;;93.50;75.25;;;;;;;;5094395;28;9658;-75
2022/01/17 01:47:33;;;;;;;;;103.50;97.75;;;;;;;;5094491;28;11608;-76
2022/01/17 01:49:59;;;;;;;;;103.25;95.75;;;;;;;;5094119;28;8810;-75
2022/01/17 01:52:25;;;;;;;;;104.00;98.75;;;;;;;;5094485;28;8794;-75
2022/01/17 01:54:50;;;;;;;;;109.75;106.50;;;;;;;;5093806;28;8850;-75
2022/01/17 01:57:15;;;;;;;;;101.67;90.33;;;;;;;;5092955;28;8937;-75
2022/01/17 01:59:41;;;;;;;;;105.25;99.50;;;;;;;;5092472;28;8884;-75
2022/01/17 02:02:06;;;;;;;;;109.25;105.50;;;;;;;;5093017;28;8936;-75
2022/01/17 02:04:32;;;;;;;;;95.75;80.50;;;;;;;;5092878;28;8844;-76
2022/01/17 02:06:57;;;;;;;;;104.75;96.50;;;;;;;;5092393;28;8825;-76
2022/01/17 02:09:25;;;;;;;;;94.50;81.00;;;;;;;;5094038;28;8806;-75
2022/01/17 02:11:51;;;;;;;;;106.60;98.60;;;;;;;;5085793;28;8906;-75
2022/01/17 02:14:17;;;;;;;;;103.80;100.40;;;;;;;;5089651;28;8798;-75
2022/01/17 02:16:44;;;;;;;;;103.50;99.00;;;;;;;;5092242;28;8813;-75
2022/01/17 02:19:10;;;;;;;;;99.40;92.40;;;;;;;;5092518;28;8811;-75
2022/01/17 02:21:46;;;;;;;;;118.50;111.50;;;;;;;;5093817;28;8848;-76
2022/01/17 02:24:16;;;;;;;;;100.80;87.00;;;;;;;;5093730;28;8812;-76
2022/01/17 02:26:42;;;;;;;;;106.20;98.60;;;;;;;;5093792;28;8891;-75
2022/01/17 02:29:08;;;;;;;;;100.00;93.40;;;;;;;;5092542;28;8801;-76
2022/01/17 02:31:33;;;;;;;;;99.33;90.33;;;;;;;;5092714;28;9163;-76
2022/01/17 02:33:58;;;;;;;;;101.50;89.25;;;;;;;;5092793;28;9187;-76
2022/01/17 02:36:24;;;;;;;;;92.50;74.25;;;;;;;;5093931;28;8794;-76
2022/01/17 02:38:49;;;;;;;;;87.50;68.75;;;;;;;;5093343;28;8857;-76
2022/01/17 02:41:15;;;;;;;;;102.67;94.00;;;;;;;;5093614;28;8813;-76
2022/01/17 02:43:41;;;;;;;;;104.00;98.75;;;;;;;;5086516;28;8825;-76
2022/01/17 02:48:33;;;;;;;;;94.25;78.75;;;;;;;;5093929;28;8959;-76
2022/01/17 02:50:59;;;;;;;;;100.40;94.40;;;;;;;;5092990;28;8775;-76
2022/01/17 02:53:25;;;;;;;;;104.20;99.40;;;;;;;;5093578;28;8805;-76
2022/01/17 02:56:09;;;;;;;;;102.33;95.33;;;;;;;;5093018;28;8891;-76
2022/01/17 02:58:35;;;;;;;;;100.80;90.60;;;;;;;;5093368;28;10628;-76
2022/01/17 03:01:04;;;;;;;;;98.00;84.50;;;;;;;;5093254;28;9671;-76
2022/01/17 03:03:30;;;;;;;;;99.50;90.75;;;;;;;;5078943;28;8836;-76
2022/01/17 03:05:56;;;;;;;;;94.25;82.50;;;;;;;;5091484;28;8790;-76
2022/01/17 03:08:23;;;;;;;;;101.40;94.20;;;;;;;;5093650;28;8906;-75
2022/01/17 03:10:49;;;;;;;;;94.80;83.60;;;;;;;;5091340;28;8820;-76
2022/01/17 03:13:15;;;;;;;;;101.60;94.00;;;;;;;;5079211;28;9755;-75
2022/01/17 03:15:42;;;;;;;;;102.50;96.75;;;;;;;;5093182;28;8789;-76
2022/01/17 03:18:07;;;;;;;;;101.80;94.60;;;;;;;;5091434;28;9790;-75
2022/01/17 03:20:34;;;;;;;;;104.50;98.00;;;;;;;;5091907;28;8810;-76
2022/01/17 03:23:00;;;;;;;;;100.50;87.75;;;;;;;;5092685;28;8786;-75
2022/01/17 03:25:25;;;;;;;;;94.00;78.25;;;;;;;;5093233;28;8782;-76
2022/01/17 03:27:50;;;;;;;;;99.00;87.25;;;;;;;;5093000;28;9581;-75
2022/01/17 03:30:16;;;;;;;;;93.33;78.67;;;;;;;;5093216;28;8822;-75
2022/01/17 03:32:41;;;;;;;;;92.50;75.75;;;;;;;;5092877;28;8848;-76
2022/01/17 03:35:07;;;;;;;;;105.25;100.25;;;;;;;;5092651;28;8798;-75
2022/01/17 03:37:32;;;;;;;;;102.75;91.00;;;;;;;;5093023;28;8810;-75
2022/01/17 03:39:57;;;;;;;;;95.75;83.75;;;;;;;;5092463;28;8801;-75
2022/01/17 03:42:24;;;;;;;;;102.25;98.75;;;;;;;;5090650;28;8802;-75
2022/01/17 03:44:50;;;;;;;;;94.20;78.00;;;;;;;;5088304;28;8875;-75
2022/01/17 03:47:15;;;;;;;;;95.00;85.00;;;;;;;;5096486;28;8806;-75
2022/01/17 03:49:40;;;;;;;;;102.75;96.00;;;;;;;;5096441;28;8797;-75
2022/01/17 03:52:06;;;;;;;;;98.75;83.50;;;;;;;;5094747;28;8918;-76
2022/01/17 03:54:31;;;;;;;;;98.75;86.75;;;;;;;;5096449;28;8894;-75
2022/01/17 03:56:57;;;;;;;;;88.33;69.33;;;;;;;;5094679;28;9689;-76
2022/01/17 03:59:22;;;;;;;;;93.40;76.80;;;;;;;;5096586;28;9620;-75
2022/01/17 04:01:48;;;;;;;;;93.25;75.75;;;;;;;;5094877;28;8806;-75
2022/01/17 04:04:13;;;;;;;;;104.25;95.25;;;;;;;;5094763;28;8794;-76
2022/01/17 04:06:38;;;;;;;;;96.00;80.75;;;;;;;;5096012;28;8805;-76
2022/01/17 04:09:04;;;;;;;;;93.67;76.33;;;;;;;;5094326;28;8956;-76
2022/01/17 04:11:29;;;;;;;;;99.00;91.00;;;;;;;;5091470;28;8789;-76
2022/01/17 04:13:54;;;;;;;;;96.25;83.50;;;;;;;;5088379;28;8837;-76
2022/01/17 04:16:20;;;;;;;;;94.00;77.25;;;;;;;;5095888;28;8833;-76
2022/01/17 04:18:45;;;;;;;;;97.33;88.67;;;;;;;;5095979;28;8817;-75
2022/01/17 04:21:10;;;;;;;;;103.33;94.67;;;;;;;;5093221;28;8837;-76
2022/01/17 04:23:36;;;;;;;;;102.25;95.75;;;;;;;;5094618;28;8964;-75
2022/01/17 04:26:01;;;;;;;;;99.00;89.25;;;;;;;;5095352;28;8915;-76
2022/01/17 04:28:26;;;;;;;;;98.75;88.75;;;;;;;;5096153;28;8813;-76
2022/01/17 04:30:52;;;;;;;;;104.25;99.25;;;;;;;;5095625;28;8821;-75
2022/01/17 04:33:17;;;;;;;;;101.00;94.75;;;;;;;;5094279;28;8869;-76
2022/01/17 04:35:43;;;;;;;;;103.25;93.25;;;;;;;;5095384;28;8821;-75
2022/01/17 04:38:10;;;;;;;;;94.20;80.60;;;;;;;;5095758;28;8947;-76
2022/01/17 04:40:37;;;;;;;;;97.75;86.75;;;;;;;;5095395;28;8814;-76
2022/01/17 04:43:14;;;;;;;;;94.75;80.00;;;;;;;;5088379;28;11615;-76
2022/01/17 04:45:39;;;;;;;;;100.80;88.20;;;;;;;;5080642;28;8833;-76
2022/01/17 04:48:05;;;;;;;;;100.50;89.50;;;;;;;;5095413;28;8872;-76
2022/01/17 04:50:30;;;;;;;;;101.67;93.00;;;;;;;;5095682;28;8843;-75
2022/01/17 04:52:58;;;;;;;;;105.33;100.33;;;;;;;;5095195;28;8801;-76
2022/01/17 04:55:24;;;;;;;;;103.40;98.40;;;;;;;;5095358;28;8797;-76
2022/01/17 04:57:50;;;;;;;;;102.60;94.60;;;;;;;;5094397;28;8928;-75
2022/01/17 05:00:17;;;;;;;;;94.80;77.20;;;;;;;;5095654;28;8794;-75
2022/01/17 05:02:43;;;;;;;;;97.60;87.60;;;;;;;;5095120;28;8770;-75
2022/01/17 05:05:09;;;;;;;;;94.25;82.00;;;;;;;;5095339;28;8914;-75
2022/01/17 05:07:34;;;;;;;;;101.75;95.25;;;;;;;;5095077;28;8801;-75
2022/01/17 05:10:01;;;;;;;;;100.75;91.75;;;;;;;;5093240;28;9697;-76
2022/01/17 05:12:26;;;;;;;;;102.75;92.25;;;;;;;;5081284;28;8913;-76
2022/01/17 05:14:53;;;;;;;;;95.75;82.25;;;;;;;;5093442;28;8798;-76
2022/01/17 05:17:36;;;;;;;;;102.25;92.50;;;;;;;;5095136;28;8809;-76
2022/01/17 05:20:01;;;;;;;;;102.25;93.75;;;;;;;;5082403;28;11798;-75
2022/01/17 05:22:31;;;;;;;;;96.33;84.33;;;;;;;;5093438;28;8932;-76
2022/01/17 05:24:56;;;;;;;;;105.00;98.80;;;;;;;;5094717;28;8801;-76
2022/01/17 05:27:21;;;;;;;;;103.50;92.75;;;;;;;;5093433;28;8829;-76
2022/01/17 05:29:47;;;;;;;;;105.00;96.67;;;;;;;;5094639;28;8824;-76
2022/01/17 05:32:12;;;;;;;;;99.75;91.00;;;;;;;;5093417;28;8840;-76
2022/01/17 05:34:40;;;;;;;;;102.25;93.00;;;;;;;;5094829;28;9533;-75
2022/01/17 05:37:09;;;;;;;;;101.00;94.20;;;;;;;;5094714;28;8821;-76
2022/01/17 05:39:35;;;;;;;;;97.75;86.25;;;;;;;;5094775;28;8884;-76
2022/01/17 05:42:01;;;;;;;;;94.40;81.20;;;;;;;;5094491;28;8883;-76
2022/01/17 05:44:26;;;;;;;;;100.50;87.00;;;;;;;;5087797;28;8805;-75
2022/01/17 05:46:51;;;;;;;;;101.33;92.00;;;;;;;;5094357;28;8864;-76
2022/01/17 05:49:17;;;;;;;;;105.00;96.80;;;;;;;;5094857;28;8786;-75
2022/01/17 05:51:42;;;;;;;;;100.00;88.00;;;;;;;;5094071;28;8832;-76
2022/01/17 05:54:08;;;;;;;;;104.50;94.25;;;;;;;;5093131;28;8828;-75
2022/01/17 05:56:33;;;;;;;;;98.00;87.67;;;;;;;;5094315;28;12284;-75
2022/01/17 05:58:58;;;;;;;;;101.00;85.33;;;;;;;;5092847;28;10371;-76
2022/01/17 06:01:24;;;;;;;;;92.75;75.75;;;;;;;;5093215;28;8822;-76
2022/01/17 06:03:49;;;;;;;;;97.00;83.75;;;;;;;;5093622;28;8814;-75
2022/01/17 06:06:14;;;;;;;;;103.25;93.50;;;;;;;;5092083;28;11716;-75
2022/01/17 06:08:40;;;;;;;;;101.33;91.33;;;;;;;;5071018;28;8855;-76
2022/01/17 06:11:05;;;;;;;;;103.75;91.75;;;;;;;;5084344;28;8826;-75
2022/01/17 06:13:31;;;;;;;;;91.00;73.00;;;;;;;;5092801;28;8825;-76
2022/01/17 06:15:56;;;;;;;;;96.60;77.60;;;;;;;;5093753;28;8821;-75
2022/01/17 06:18:21;;;;;;;;;103.00;92.33;;;;;;;;5093835;28;8833;-76
2022/01/17 06:20:47;;;;;;;;;93.00;78.75;;;;;;;;5090899;28;11630;-75
2022/01/17 06:23:12;;;;;;;;;90.00;72.40;;;;;;;;5091726;28;8810;-76
2022/01/17 06:25:38;;;;;;;;;91.00;71.25;;;;;;;;5093687;28;8809;-76
2022/01/17 06:28:03;;;;;;;;;98.00;82.00;;;;;;;;5092583;28;8861;-75
2022/01/17 06:30:29;;;;;;;;;99.50;81.25;;;;;;;;5090972;28;8822;-76
2022/01/17 06:32:54;;;;;;;;;97.75;79.75;;;;;;;;5093078;28;8825;-76
2022/01/17 06:35:19;;;;;;;;;97.00;79.25;;;;;;;;5093743;28;8834;-76
2022/01/17 06:37:45;;;;;;;;;100.33;84.33;;;;;;;;5094744;28;8841;-75
2022/01/17 06:40:11;;;;;;;;;104.40;91.00;;;;;;;;5093681;28;8806;-76
2022/01/17 06:42:37;;;;;;;;;99.00;85.00;;;;;;;;5090739;28;8871;-75
2022/01/17 06:45:04;;;;;;;;;106.75;92.50;;;;;;;;5079596;28;8864;-75
2022/01/17 06:47:33;;;;;;;;;107.60;103.80;;;;;;;;5093886;28;8786;-76
2022/01/17 06:49:58;;;;;;;;;108.40;101.80;;;;;;;;5090355;27;8742;-76
2022/01/17 06:52:24;;;;;;;;;95.00;75.00;;;;;;;;5091765;28;9615;-76
2022/01/17 06:54:50;;;;;;;;;97.67;75.67;;;;;;;;5092451;28;8821;-76
2022/01/17 06:57:15;;;;;;;;;111.00;105.25;;;;;;;;5092819;28;11621;-75
2022/01/17 06:59:40;;;;;;;;;120.75;114.75;;;;;;;;5093159;28;9607;-76
2022/01/17 07:02:08;;;;;;;;;113.50;107.00;;;;;;;;5091286;28;9573;-76
2022/01/17 07:04:33;;;;;;;;;98.60;82.40;;;;;;;;5093763;28;8801;-78
2022/01/17 07:06:58;;;;;;;;;109.80;103.00;;;;;;;;5090997;28;8837;-76
2022/01/17 07:09:24;;;;;;;;;107.00;98.67;;;;;;;;5093184;28;8832;-77
2022/01/17 07:11:49;;;;;;;;;119.20;112.60;;;;;;;;5092844;28;8805;-77
2022/01/17 07:14:14;;;;;;;;;102.25;88.50;;;;;;;;5092856;28;8830;-77
2022/01/17 07:16:40;;;;;;;;;94.33;77.33;;;;;;;;5093094;28;8817;-77
2022/01/17 07:19:06;;;;;;;;;111.60;105.60;;;;;;;;5091847;28;10461;-77
2022/01/17 07:21:32;;;;;;;;;105.25;95.25;;;;;;;;5096932;28;8810;-77
2022/01/17 07:23:58;;;;;;;;;125.25;119.25;;;;;;;;5099443;28;8793;-77
2022/01/17 07:26:23;;;;;;;;;123.00;119.75;;;;;;;;5099949;28;8892;-77
2022/01/17 07:28:49;;;;;;;;;111.75;107.75;;;;;;;;5099807;28;8990;-77
2022/01/17 07:31:15;;;;;;;;;99.67;81.00;;;;;;;;5099725;28;8952;-77
2022/01/17 07:33:40;;;;;;;;;108.40;103.80;;;;;;;;5099762;28;8932;-77
2022/01/17 07:36:06;;;;;;;;;104.00;94.50;;;;;;;;5099537;28;8904;-77
2022/01/17 07:38:31;;;;;;;;;106.50;100.00;;;;;;;;5099970;28;8852;-77
2022/01/17 07:40:57;;;;;;;;;105.75;95.50;;;;;;;;5099301;28;8818;-77
2022/01/17 07:43:22;;;;;;;;;98.33;83.67;;;;;;;;5092708;28;8818;-77
2022/01/17 07:46:03;;;;;;;;;106.33;92.33;;;;;;;;5099713;28;8806;-77
2022/01/17 07:51:29;;;;;;;;;99.25;81.25;;;;;;;;5084776;28;8899;-76
2022/01/17 07:53:56;;;;;;;;;100.80;86.20;;;;;;;;5087418;28;8814;-76
2022/01/17 07:56:22;;;;;;;;;95.80;79.40;;;;;;;;5090775;28;9799;-76
2022/01/17 07:58:47;;;;;;;;;105.00;90.40;;;;;;;;5097083;28;8821;-76
2022/01/17 08:01:12;;;;;;;;;102.00;88.00;;;;;;;;5093818;28;8816;-76
2022/01/17 08:03:38;;;;;;;;;102.50;84.25;;;;;;;;5091660;28;8850;-75
2022/01/17 08:06:04;;;;;;;;;98.50;79.50;;;;;;;;5099158;28;8814;-76
2022/01/17 08:08:29;;;;;;;;;104.00;92.50;;;;;;;;5099620;28;8806;-76
2022/01/17 08:10:55;;;;;;;;;104.75;93.25;;;;;;;;5097082;28;8848;-76
2022/01/17 08:13:20;;;;;;;;;97.25;79.75;;;;;;;;5097706;28;9003;-77
2022/01/17 08:15:46;;;;;;;;;99.60;85.00;;;;;;;;5097355;28;9633;-77
2022/01/17 08:18:12;;;;;;;;;117.00;102.75;;;;;;;;5098962;28;8954;-77
2022/01/17 08:20:37;;;;;;;;;98.20;83.40;;;;;;;;5090922;28;8814;-77
2022/01/17 08:23:03;;;;;;;;;106.75;97.25;;;;;;;;5098348;28;8908;-77
2022/01/17 08:25:28;;;;;;;;;96.50;83.00;;;;;;;;5097211;28;8817;-77
2022/01/17 08:27:54;;;;;;;;;96.67;79.67;;;;;;;;5099305;28;8814;-77
2022/01/17 08:30:19;;;;;;;;;99.25;88.25;;;;;;;;5099088;28;8817;-77
2022/01/17 08:32:44;;;;;;;;;106.00;103.00;;;;;;;;5093385;28;8881;-77
2022/01/17 08:35:11;;;;;;;;;107.50;100.00;;;;;;;;5095328;28;8925;-76
2022/01/17 08:37:36;;;;;;;;;107.00;104.50;;;;;;;;5094555;28;8820;-77
2022/01/17 08:40:03;;;;;;;;;103.50;94.75;;;;;;;;5094558;28;8802;-78
2022/01/17 08:42:29;;;;;;;;;105.50;96.00;;;;;;;;5086975;28;8843;-77
2022/01/17 08:44:55;;;;;;;;;104.75;93.25;;;;;;;;5093635;28;8930;-77
2022/01/17 08:47:21;;;;;;;;;124.80;113.60;;;;;;;;5091736;28;11591;-77
2022/01/17 08:49:48;;;;;;;;;112.33;107.67;;;;;;;;5089147;28;8809;-77
2022/01/17 08:52:15;;;;;;;;;107.20;101.00;;;;;;;;5094601;28;8806;-76
2022/01/17 08:54:40;;;;;;;;;112.75;102.50;;;;;;;;5094993;28;8797;-76
2022/01/17 08:57:05;;;;;;;;;104.00;99.25;;;;;;;;5092897;28;11697;-76
2022/01/17 08:59:31;;;;;;;;;105.33;99.33;;;;;;;;5095195;28;8821;-76
2022/01/17 09:01:57;;;;;;;;;98.80;85.80;;;;;;;;5094827;28;8802;-77
2022/01/17 09:04:22;;;;;;;;;94.50;78.25;;;;;;;;5094259;28;8789;-77
2022/01/17 09:06:48;;;;;;;;;98.25;85.25;;;;;;;;5092536;28;8834;-77
2022/01/17 09:09:14;;;;;;;;;98.00;82.50;;;;;;;;5090450;28;8861;-77
2022/01/17 09:11:39;;;;;;;;;103.00;89.00;;;;;;;;5093795;28;8892;-76
2022/01/17 09:14:04;;;;;;;;;109.75;97.50;;;;;;;;5094980;28;8836;-76
2022/01/17 09:16:30;;;;;;;;;117.33;113.67;;;;;;;;5095038;28;11552;-77
2022/01/17 09:18:55;;;;;;;;;102.33;94.00;;;;;;;;5093953;28;8836;-75
2022/01/17 09:21:20;;;;;;;;;112.67;105.33;;;;;;;;5089713;28;8837;-74
2022/01/17 09:23:46;;;;;;;;;102.75;95.50;;;;;;;;5093590;28;8802;-75
2022/01/17 09:26:13;;;;;;;;;143.50;134.00;;;;;;;;5095156;28;8927;-75
2022/01/17 09:28:38;;;;;;;;;150.60;147.80;;;;;;;;5093325;28;8805;-75
2022/01/17 09:31:03;;;;;;;;;154.50;138.75;;;;;;;;5093412;28;8810;-75
2022/01/17 09:33:29;;;;;;;;;147.33;136.67;;;;;;;;5090367;28;8814;-75
2022/01/17 09:35:54;;;;;;;;;120.00;113.25;;;;;;;;5091130;28;8810;-75
2022/01/17 09:38:19;;;;;;;;;119.00;108.00;;;;;;;;5090357;28;8860;-75
2022/01/17 09:40:45;;;;;;;;;152.00;139.25;;;;;;;;5092919;28;8818;-75
2022/01/17 09:43:10;;;;;;;;;150.40;134.80;;;;;;;;5084510;28;8841;-75
2022/01/17 09:45:35;;;;;;;;;105.00;94.75;;;;;;;;5093605;28;8910;-75
2022/01/17 09:48:02;;;;;;;;;111.25;103.75;;;;;;;;5094270;28;8802;-75
2022/01/17 09:50:45;;;;;;;;;105.40;99.40;;;;;;;;5092591;28;9622;-75
2022/01/17 09:53:14;;;;;;;;;118.00;107.80;;;;;;;;5093704;28;9010;-76
2022/01/17 09:55:40;;;;;;;;;121.00;115.00;;;;;;;;5087366;28;8801;-75
2022/01/17 09:58:06;;;;;;;;;124.75;117.75;;;;;;;;5092795;28;8841;-75
2022/01/17 10:00:34;;;;;;;;;163.50;148.50;;;;;;;;5093594;28;9642;-75
2022/01/17 10:03:02;;;;;;;;;154.67;141.83;;;;;;;;5075156;28;8792;-75
2022/01/17 10:05:27;;;;;;;;;133.40;128.00;;;;;;;;5091076;28;8801;-75
2022/01/17 10:08:06;;;;;;;;;133.80;128.60;;;;;;;;5093724;28;10013;-74
2022/01/17 10:11:00;;;;;;;;;121.40;115.60;;;;;;;;5093710;28;8790;-75
2022/01/17 10:13:26;;;;;;;;;132.00;124.00;;;;;;;;5088882;28;8806;-75
2022/01/17 10:16:08;;;;;;;;;148.33;143.33;;;;;;;;5091802;28;8794;-75
2022/01/17 10:18:37;;;;;;;;;395.80;300.80;;;;;;;;5093420;28;8832;-75
2022/01/17 10:21:16;;;;;;;;;116.50;109.25;;;;;;;;5094074;28;8816;-76
2022/01/17 10:37:13;;;;;;;;;97.00;85.40;;;;;;;;5081065;28;8826;-74
2022/01/17 10:39:59;;;;;;;;;97.75;86.75;;;;;;;;5091653;28;8872;-74
2022/01/17 10:42:29;;;;;;;;;115.40;102.20;;;;;;;;5092063;28;8809;-73
2022/01/17 10:45:00;;;;;;;;;97.25;88.25;;;;;;;;5091501;28;10539;-74
2022/01/17 10:47:27;;;;;;;;;107.00;97.60;;;;;;;;5092135;28;8824;-74
2022/01/17 10:49:52;;;;;;;;;93.20;83.20;;;;;;;;5092904;28;8897;-73
2022/01/17 10:52:32;;;;;;;;;107.50;98.75;;;;;;;;5092764;28;8953;-73
2022/01/17 10:54:59;;;;;;;;;111.80;106.00;;;;;;;;5092722;28;8785;-74
2022/01/17 10:57:25;;;;;;;;;105.60;99.80;;;;;;;;5091329;28;8891;-73
2022/01/17 10:59:51;;;;;;;;;99.20;90.20;;;;;;;;5092995;28;8778;-73
2022/01/17 11:02:17;;;;;;;;;101.80;97.80;;;;;;;;5093505;28;8809;-73
2022/01/17 11:04:42;;;;;;;;;108.00;101.20;;;;;;;;5091903;28;8975;-73
2022/01/17 11:07:08;;;;;;;;;95.75;86.50;;;;;;;;5091346;28;8796;-73
2022/01/17 11:09:41;;;;;;;;;112.33;103.00;;;;;;;;5091777;28;9718;-74
2022/01/17 11:12:16;;;;;;;;;97.20;88.40;;;;;;;;5091959;28;8794;-73
2022/01/17 11:14:42;;;;;;;;;91.80;76.60;;;;;;;;5091900;28;8811;-73
2022/01/17 11:17:33;;;;;;;;;92.60;78.80;;;;;;;;5082154;28;8798;-73
2022/01/17 11:20:07;;;;;;;;;90.40;77.60;;;;;;;;5096259;28;8786;-73
2022/01/17 11:22:37;;;;;;;;;90.75;78.00;;;;;;;;5092776;28;8878;-73
2022/01/17 11:25:04;;;;;;;;;91.80;80.60;;;;;;;;5092982;28;8909;-73
2022/01/17 11:27:30;;;;;;;;;92.00;72.50;;;;;;;;5093775;28;8813;-74
2022/01/17 11:29:55;;;;;;;;;89.00;72.75;;;;;;;;5091222;28;8817;-70
2022/01/17 11:32:22;;;;;;;;;89.25;77.00;;;;;;;;5092806;28;11728;-71
2022/01/17 11:34:48;;;;;;;;;89.50;76.50;;;;;;;;5092956;28;8798;-71
2022/01/17 11:37:13;;;;;;;;;82.00;66.00;;;;;;;;5091838;28;8824;-72
2022/01/17 11:39:49;;;;;;;;;94.50;84.00;;;;;;;;5092986;28;8856;-72
2022/01/17 11:42:30;;;;;;;;;90.60;74.00;;;;;;;;5091328;28;8821;-72
2022/01/17 11:44:55;;;;;;;;;90.60;77.40;;;;;;;;5089193;28;8832;-71
2022/01/17 11:47:39;;;;;;;;;91.67;75.00;;;;;;;;5091379;28;8822;-71
2022/01/17 11:50:23;;;;;;;;;95.20;88.60;;;;;;;;5080723;28;8830;-71
2022/01/17 11:52:49;;;;;;;;;103.67;92.33;;;;;;;;5092036;28;8814;-71
2022/01/17 11:55:34;;;;;;;;;99.80;91.80;;;;;;;;5092785;28;8849;-72
2022/01/17 11:58:19;;;;;;;;;107.40;102.80;;;;;;;;5090571;28;8817;-73
2022/01/17 12:00:45;;;;;;;;;148.67;144.67;;;;;;;;5087640;28;8847;-73
2022/01/17 12:03:19;;;;;;;;;118.60;113.80;;;;;;;;5092260;28;8975;-72
2022/01/17 12:05:45;;;;;;;;;117.50;113.25;;;;;;;;5091938;28;8829;-72
2022/01/17 12:08:13;;;;;;;;;120.00;116.75;;;;;;;;5095527;28;9047;-72
2022/01/17 12:10:40;;;;;;;;;111.50;107.50;;;;;;;;5094913;28;8832;-73
2022/01/17 12:13:34;;;;;;;;;100.20;94.80;;;;;;;;5096155;28;8957;-72
2022/01/17 12:16:06;;;;;;;;;112.80;105.40;;;;;;;;5081879;28;8828;-72
2022/01/17 12:18:34;;;;;;;;;119.60;113.60;;;;;;;;5095816;28;8817;-73
2022/01/17 12:21:19;;;;;;;;;116.00;111.00;;;;;;;;5088572;28;8965;-72
2022/01/17 12:23:45;;;;;;;;;135.17;130.83;;;;;;;;5092380;28;8797;-73
2022/01/17 12:26:27;;;;;;;;;128.00;126.60;;;;;;;;5095973;28;8925;-72
2022/01/17 12:28:53;;;;;;;;;162.80;158.20;;;;;;;;5084558;28;8792;-72
2022/01/17 12:31:37;;;;;;;;;159.20;156.60;;;;;;;;5095701;28;8841;-72
2022/01/17 12:34:32;;;;;;;;;134.60;130.60;;;;;;;;5093106;28;8790;-72
2022/01/17 12:36:58;;;;;;;;;135.60;131.40;;;;;;;;5079572;28;8825;-72
2022/01/17 12:39:28;;;;;;;;;139.25;133.25;;;;;;;;5086132;28;8825;-72
2022/01/17 12:41:58;;;;;;;;;145.00;137.20;;;;;;;;5095654;28;11695;-72
2022/01/17 12:44:24;;;;;;;;;116.17;108.17;;;;;;;;5093737;28;8738;-72
2022/01/17 12:47:00;;;;;;;;;119.00;116.40;;;;;;;;5095758;28;8751;-71
2022/01/17 12:49:26;;;;;;;;;119.40;111.80;;;;;;;;5095787;28;8807;-74
2022/01/17 12:51:54;;;;;;;;;107.40;104.60;;;;;;;;5095476;28;9553;-73
2022/01/17 12:54:20;;;;;;;;;93.75;81.75;;;;;;;;5093758;28;8797;-74
2022/01/17 12:56:47;;;;;;;;;94.00;85.00;;;;;;;;5095130;28;11058;-74
2022/01/17 12:59:15;;;;;;;;;83.40;66.40;;;;;;;;5095042;28;8833;-74
2022/01/17 13:02:00;;;;;;;;;93.40;85.00;;;;;;;;5081560;28;8942;-74
2022/01/17 13:04:26;;;;;;;;;84.50;66.25;;;;;;;;5095467;28;8883;-73
2022/01/17 13:06:52;;;;;;;;;102.75;98.25;;;;;;;;5095004;28;8845;-73
2022/01/17 13:09:20;;;;;;;;;138.33;134.67;;;;;;;;5095061;28;8867;-74
2022/01/17 13:11:46;;;;;;;;;92.80;83.20;;;;;;;;5093352;28;8966;-75
2022/01/17 13:14:16;;;;;;;;;87.75;76.00;;;;;;;;5094017;28;8903;-74
2022/01/17 13:16:42;;;;;;;;;114.20;111.20;;;;;;;;5093288;28;8794;-74
2022/01/17 13:19:09;;;;;;;;;127.40;124.20;;;;;;;;5090992;28;8921;-74
2022/01/17 13:21:38;;;;;;;;;105.75;102.75;;;;;;;;5092706;28;8987;-74
2022/01/17 13:24:19;;;;;;;;;122.60;118.80;;;;;;;;5093412;28;8738;-74
2022/01/17 13:26:56;;;;;;;;;138.80;133.60;;;;;;;;5081707;28;9819;-73
2022/01/17 13:29:22;;;;;;;;;125.40;119.80;;;;;;;;5093535;28;8802;-74
2022/01/17 13:31:47;;;;;;;;;115.50;114.00;;;;;;;;5094877;28;8844;-74
2022/01/17 13:34:28;;;;;;;;;98.50;95.00;;;;;;;;5094968;28;8774;-74
2022/01/17 13:36:54;;;;;;;;;109.20;103.40;;;;;;;;5093185;28;8798;-74
2022/01/17 13:39:21;;;;;;;;;101.60;94.00;;;;;;;;5092526;28;8801;-74
2022/01/17 13:42:07;;;;;;;;;91.20;83.00;;;;;;;;5094411;28;8821;-74
2022/01/17 13:44:36;;;;;;;;;98.50;96.50;;;;;;;;5086335;28;8797;-73
2022/01/17 13:47:06;;;;;;;;;99.60;93.80;;;;;;;;5094532;28;8786;-74
2022/01/17 13:49:33;;;;;;;;;96.00;93.20;;;;;;;;5093265;28;8818;-75
2022/01/17 13:51:59;;;;;;;;;98.80;92.20;;;;;;;;5094142;28;8788;-74
2022/01/17 13:54:29;;;;;;;;;115.00;111.40;;;;;;;;5094525;28;8790;-75
2022/01/17 13:56:55;;;;;;;;;88.25;77.75;;;;;;;;5094182;28;8815;-74
2022/01/17 13:59:23;;;;;;;;;97.40;93.00;;;;;;;;5092486;28;11056;-74
2022/01/17 14:01:48;;;;;;;;;103.00;98.40;;;;;;;;5080469;28;8781;-74
2022/01/17 14:04:15;;;;;;;;;86.25;72.25;;;;;;;;5094521;28;8802;-74
2022/01/17 14:06:41;;;;;;;;;99.20;94.80;;;;;;;;5092544;28;8940;-74
2022/01/17 14:09:08;;;;;;;;;93.50;85.75;;;;;;;;5094308;28;8826;-74
2022/01/17 14:11:35;;;;;;;;;101.40;99.20;;;;;;;;5092693;28;9075;-75
2022/01/17 14:14:00;;;;;;;;;122.00;114.60;;;;;;;;5092610;28;8802;-75
2022/01/17 14:16:28;;;;;;;;;129.25;124.75;;;;;;;;5092859;28;8836;-74
2022/01/17 14:18:53;;;;;;;;;82.60;68.00;;;;;;;;5093324;28;8797;-73
2022/01/17 14:21:26;;;;;;;;;121.25;118.75;;;;;;;;5089981;28;9542;-73
2022/01/17 14:24:10;;;;;;;;;119.80;116.20;;;;;;;;5093378;28;8798;-73
2022/01/17 14:26:36;;;;;;;;;137.60;135.40;;;;;;;;5094226;28;8805;-73
2022/01/17 14:29:01;;;;;;;;;148.60;145.60;;;;;;;;5092935;28;8824;-73
2022/01/17 14:31:33;;;;;;;;;129.50;124.00;;;;;;;;5093982;28;11652;-73
2022/01/17 14:34:08;;;;;;;;;126.33;120.00;;;;;;;;5093624;28;8794;-73
2022/01/17 14:36:33;;;;;;;;;102.00;98.20;;;;;;;;5092739;28;8836;-73
2022/01/17 14:38:59;;;;;;;;;131.40;129.40;;;;;;;;5092339;28;8825;-73
2022/01/17 14:41:33;;;;;;;;;128.40;125.40;;;;;;;;5093993;28;8806;-73
2022/01/17 14:44:01;;;;;;;;;109.83;101.50;;;;;;;;5086385;28;8798;-73
2022/01/17 14:46:27;;;;;;;;;103.25;96.75;;;;;;;;5094128;28;8802;-73